Terminal Aerodrome Forecast
Issued by NWS

Home | Current Version | Previous Version | Text Only | Print | Product List | Glossary Off
Versions: 1 2 3 4 5 6 7 8 9 10 11 12 13 14 15 16 17 18 19 20 21

000
FTUS43 KICT 250822 AAA
TAFRSL
TAF AMD
KRSL 250822Z 2508/2606 04009KT P6SM VCTS BKN090CB
      TEMPO 2508/2510 VRB15G25KT 3SM +TSRA SCT015 BKN040CB
     FM251200 07010KT P6SM SCT070 BKN150
     FM252200 13009KT P6SM SCT150=

USA.gov is the U.S. government's official web portal to all federal, state and local government web resources and services.